Terminal Aerodrome Forecast
Issued by NWS

Home | Current Version | Previous Version | Text Only | Print | Product List | Glossary On
Versions: 1 2 3 4 5 6 7 8 9 10 11 12 13 14 15 16 17 18 19 20 21
000
FTUS46 KMFR 290100 AAA
TAFOTH
TAF AMD
KOTH 290100Z 2901/2924 35015G22KT P6SM SKC
     FM290200 35014G20KT 5SM BR BKN002
     FM291000 35010KT 2SM BR OVC002
     FM291900 35015G25KT P6SM SCT015=

USA.gov is the U.S. government's official web portal to all federal, state and local government web resources and services.